sensor_id;sensor_type;location;lat;lon;timestamp;temperature;humidity
33943;DHT22;66763;47.856;17.462;2023-01-13T00:00:20;12.90;53.50
33943;DHT22;66763;47.856;17.462;2023-01-13T00:02:46;12.90;53.50
33943;DHT22;66763;47.856;17.462;2023-01-13T00:05:11;12.90;53.60
33943;DHT22;66763;47.856;17.462;2023-01-13T00:07:37;12.90;53.60
33943;DHT22;66763;47.856;17.462;2023-01-13T00:10:07;12.90;53.70
33943;DHT22;66763;47.856;17.462;2023-01-13T00:12:33;12.90;53.60
33943;DHT22;66763;47.856;17.462;2023-01-13T00:14:59;12.90;53.60
33943;DHT22;66763;47.856;17.462;2023-01-13T00:17:24;12.90;53.60
33943;DHT22;66763;47.856;17.462;2023-01-13T00:19:50;12.80;53.50
33943;DHT22;66763;47.856;17.462;2023-01-13T00:22:15;12.90;53.50
33943;DHT22;66763;47.856;17.462;2023-01-13T00:24:41;12.90;53.60
33943;DHT22;66763;47.856;17.462;2023-01-13T00:27:06;12.80;53.50
33943;DHT22;66763;47.856;17.462;2023-01-13T00:29:32;12.90;53.50
33943;DHT22;66763;47.856;17.462;2023-01-13T00:31:57;12.90;53.50
33943;DHT22;66763;47.856;17.462;2023-01-13T00:34:23;12.90;53.40
33943;DHT22;66763;47.856;17.462;2023-01-13T00:36:48;12.90;53.40
33943;DHT22;66763;47.856;17.462;2023-01-13T00:39:14;12.90;53.40
33943;DHT22;66763;47.856;17.462;2023-01-13T00:41:40;12.90;53.40
33943;DHT22;66763;47.856;17.462;2023-01-13T00:44:24;12.80;53.40
33943;DHT22;66763;47.856;17.462;2023-01-13T00:46:49;12.80;53.40
33943;DHT22;66763;47.856;17.462;2023-01-13T00:49:15;12.90;53.50
33943;DHT22;66763;47.856;17.462;2023-01-13T00:51:40;12.80;53.40
33943;DHT22;66763;47.856;17.462;2023-01-13T00:54:06;12.80;53.50
33943;DHT22;66763;47.856;17.462;2023-01-13T00:56:32;12.80;53.50
33943;DHT22;66763;47.856;17.462;2023-01-13T00:58:57;12.80;53.50
33943;DHT22;66763;47.856;17.462;2023-01-13T01:01:23;12.80;53.40
33943;DHT22;66763;47.856;17.462;2023-01-13T01:03:49;12.80;53.40
33943;DHT22;66763;47.856;17.462;2023-01-13T01:06:16;12.80;53.40
33943;DHT22;66763;47.856;17.462;2023-01-13T01:08:42;12.80;53.50
33943;DHT22;66763;47.856;17.462;2023-01-13T01:11:09;12.80;53.50
33943;DHT22;66763;47.856;17.462;2023-01-13T01:13:35;12.80;53.50
33943;DHT22;66763;47.856;17.462;2023-01-13T01:16:05;12.80;53.50
33943;DHT22;66763;47.856;17.462;2023-01-13T01:18:32;12.80;53.50
33943;DHT22;66763;47.856;17.462;2023-01-13T01:20:58;12.80;53.50
33943;DHT22;66763;47.856;17.462;2023-01-13T01:23:24;12.80;53.50
33943;DHT22;66763;47.856;17.462;2023-01-13T01:25:49;12.80;53.50
33943;DHT22;66763;47.856;17.462;2023-01-13T01:28:15;12.80;53.50
33943;DHT22;66763;47.856;17.462;2023-01-13T01:30:43;12.80;53.50
33943;DHT22;66763;47.856;17.462;2023-01-13T01:33:09;12.80;53.60
33943;DHT22;66763;47.856;17.462;2023-01-13T01:35:37;12.80;53.60
33943;DHT22;66763;47.856;17.462;2023-01-13T01:38:03;12.80;53.60
33943;DHT22;66763;47.856;17.462;2023-01-13T01:40:28;12.80;53.60
33943;DHT22;66763;47.856;17.462;2023-01-13T01:42:54;12.80;53.60
33943;DHT22;66763;47.856;17.462;2023-01-13T01:45:37;12.80;53.60
33943;DHT22;66763;47.856;17.462;2023-01-13T01:48:03;12.70;53.50
33943;DHT22;66763;47.856;17.462;2023-01-13T01:50:29;12.80;53.60
33943;DHT22;66763;47.856;17.462;2023-01-13T01:52:56;12.70;53.50
33943;DHT22;66763;47.856;17.462;2023-01-13T01:55:25;12.70;53.60
33943;DHT22;66763;47.856;17.462;2023-01-13T01:58:26;12.70;53.50
33943;DHT22;66763;47.856;17.462;2023-01-13T02:00:45;12.70;53.60
33943;DHT22;66763;47.856;17.462;2023-01-13T02:03:10;12.80;53.50
33943;DHT22;66763;47.856;17.462;2023-01-13T02:05:36;12.80;53.50
33943;DHT22;66763;47.856;17.462;2023-01-13T02:08:03;12.70;53.50
33943;DHT22;66763;47.856;17.462;2023-01-13T02:10:29;12.80;53.50
33943;DHT22;66763;47.856;17.462;2023-01-13T02:12:55;12.80;53.50
33943;DHT22;66763;47.856;17.462;2023-01-13T02:15:28;12.80;53.60
33943;DHT22;66763;47.856;17.462;2023-01-13T02:31:52;12.70;53.60
33943;DHT22;66763;47.856;17.462;2023-01-13T02:34:21;12.70;53.60
33943;DHT22;66763;47.856;17.462;2023-01-13T02:39:35;12.70;53.60
33943;DHT22;66763;47.856;17.462;2023-01-13T02:45:28;12.70;53.60
33943;DHT22;66763;47.856;17.462;2023-01-13T02:47:56;12.70;53.50
33943;DHT22;66763;47.856;17.462;2023-01-13T02:50:30;12.70;53.60
33943;DHT22;66763;47.856;17.462;2023-01-13T02:53:00;12.70;53.60
33943;DHT22;66763;47.856;17.462;2023-01-13T02:55:31;12.70;53.60
33943;DHT22;66763;47.856;17.462;2023-01-13T02:57:58;12.70;53.50
33943;DHT22;66763;47.856;17.462;2023-01-13T03:00:26;12.70;53.50
33943;DHT22;66763;47.856;17.462;2023-01-13T03:02:52;12.70;53.60
33943;DHT22;66763;47.856;17.462;2023-01-13T03:05:17;12.70;53.50
33943;DHT22;66763;47.856;17.462;2023-01-13T03:12:51;12.70;53.50
33943;DHT22;66763;47.856;17.462;2023-01-13T03:15:42;12.70;53.50
33943;DHT22;66763;47.856;17.462;2023-01-13T03:20:48;12.70;53.50
33943;DHT22;66763;47.856;17.462;2023-01-13T03:23:23;12.70;53.50
33943;DHT22;66763;47.856;17.462;2023-01-13T03:25:58;12.60;53.50
33943;DHT22;66763;47.856;17.462;2023-01-13T03:28:27;12.70;53.50
33943;DHT22;66763;47.856;17.462;2023-01-13T03:30:55;12.70;53.50
33943;DHT22;66763;47.856;17.462;2023-01-13T03:33:24;12.70;53.50
33943;DHT22;66763;47.856;17.462;2023-01-13T03:35:52;12.70;53.50
33943;DHT22;66763;47.856;17.462;2023-01-13T03:40:49;12.60;53.50
33943;DHT22;66763;47.856;17.462;2023-01-13T03:43:17;12.70;53.50
33943;DHT22;66763;47.856;17.462;2023-01-13T03:46:04;12.70;53.50
33943;DHT22;66763;47.856;17.462;2023-01-13T03:48:32;12.60;53.50
33943;DHT22;66763;47.856;17.462;2023-01-13T03:51:02;12.60;53.50
33943;DHT22;66763;47.856;17.462;2023-01-13T03:53:30;12.70;53.50
33943;DHT22;66763;47.856;17.462;2023-01-13T03:56:42;12.60;53.50
33943;DHT22;66763;47.856;17.462;2023-01-13T03:58:42;12.70;53.50
33943;DHT22;66763;47.856;17.462;2023-01-13T04:08:52;12.60;53.50
33943;DHT22;66763;47.856;17.462;2023-01-13T04:11:28;12.70;53.50
33943;DHT22;66763;47.856;17.462;2023-01-13T04:13:53;12.60;53.50
33943;DHT22;66763;47.856;17.462;2023-01-13T04:16:20;12.60;53.50
33943;DHT22;66763;47.856;17.462;2023-01-13T04:18:46;12.70;53.60
33943;DHT22;66763;47.856;17.462;2023-01-13T04:21:14;12.60;53.50
33943;DHT22;66763;47.856;17.462;2023-01-13T04:23:39;12.60;53.50
33943;DHT22;66763;47.856;17.462;2023-01-13T04:26:05;12.70;53.50
33943;DHT22;66763;47.856;17.462;2023-01-13T04:28:30;12.60;53.50
33943;DHT22;66763;47.856;17.462;2023-01-13T04:30:57;12.70;53.50
33943;DHT22;66763;47.856;17.462;2023-01-13T04:33:23;12.70;53.50
33943;DHT22;66763;47.856;17.462;2023-01-13T04:35:48;12.70;53.50
33943;DHT22;66763;47.856;17.462;2023-01-13T04:38:15;12.70;53.40
33943;DHT22;66763;47.856;17.462;2023-01-13T04:40:41;12.70;53.40
33943;DHT22;66763;47.856;17.462;2023-01-13T04:43:06;12.70;53.40
33943;DHT22;66763;47.856;17.462;2023-01-13T04:45:32;12.70;53.40
33943;DHT22;66763;47.856;17.462;2023-01-13T04:47:58;12.70;53.40
33943;DHT22;66763;47.856;17.462;2023-01-13T04:50:23;12.70;53.40
33943;DHT22;66763;47.856;17.462;2023-01-13T04:52:49;12.70;53.40
33943;DHT22;66763;47.856;17.462;2023-01-13T04:55:15;12.70;53.40
33943;DHT22;66763;47.856;17.462;2023-01-13T04:57:41;12.70;53.50
33943;DHT22;66763;47.856;17.462;2023-01-13T05:00:08;12.70;53.40
33943;DHT22;66763;47.856;17.462;2023-01-13T05:02:34;12.70;53.40
33943;DHT22;66763;47.856;17.462;2023-01-13T05:05:00;12.70;53.30
33943;DHT22;66763;47.856;17.462;2023-01-13T05:07:25;12.70;53.40
33943;DHT22;66763;47.856;17.462;2023-01-13T05:09:51;12.60;53.30
33943;DHT22;66763;47.856;17.462;2023-01-13T05:12:16;12.60;53.40
33943;DHT22;66763;47.856;17.462;2023-01-13T05:15:00;12.60;53.40
33943;DHT22;66763;47.856;17.462;2023-01-13T05:17:44;12.60;53.40
33943;DHT22;66763;47.856;17.462;2023-01-13T05:20:10;12.60;53.50
33943;DHT22;66763;47.856;17.462;2023-01-13T05:22:36;12.60;53.50
33943;DHT22;66763;47.856;17.462;2023-01-13T05:25:20;12.60;53.50
33943;DHT22;66763;47.856;17.462;2023-01-13T05:27:50;12.60;53.50
33943;DHT22;66763;47.856;17.462;2023-01-13T05:30:16;12.60;53.50
33943;DHT22;66763;47.856;17.462;2023-01-13T05:32:41;12.60;53.50
33943;DHT22;66763;47.856;17.462;2023-01-13T05:35:07;12.60;53.50
33943;DHT22;66763;47.856;17.462;2023-01-13T05:37:33;12.60;53.40
33943;DHT22;66763;47.856;17.462;2023-01-13T05:39:58;12.60;53.40
33943;DHT22;66763;47.856;17.462;2023-01-13T05:42:43;12.60;53.40
33943;DHT22;66763;47.856;17.462;2023-01-13T05:45:27;12.60;53.40
33943;DHT22;66763;47.856;17.462;2023-01-13T05:47:53;12.60;53.50
33943;DHT22;66763;47.856;17.462;2023-01-13T05:50:19;12.50;53.40
33943;DHT22;66763;47.856;17.462;2023-01-13T05:52:44;12.60;53.50
33943;DHT22;66763;47.856;17.462;2023-01-13T05:55:10;12.50;53.40
33943;DHT22;66763;47.856;17.462;2023-01-13T05:57:36;12.50;53.40
33943;DHT22;66763;47.856;17.462;2023-01-13T06:00:02;12.50;53.30
33943;DHT22;66763;47.856;17.462;2023-01-13T06:02:28;12.60;53.40
33943;DHT22;66763;47.856;17.462;2023-01-13T06:04:54;12.60;53.40
33943;DHT22;66763;47.856;17.462;2023-01-13T06:07:19;12.60;53.40
33943;DHT22;66763;47.856;17.462;2023-01-13T06:09:45;12.60;53.50
33943;DHT22;66763;47.856;17.462;2023-01-13T06:12:10;12.50;53.40
33943;DHT22;66763;47.856;17.462;2023-01-13T06:14:36;12.50;53.40
33943;DHT22;66763;47.856;17.462;2023-01-13T06:17:08;12.50;54.00
33943;DHT22;66763;47.856;17.462;2023-01-13T06:19:33;12.50;53.40
33943;DHT22;66763;47.856;17.462;2023-01-13T06:22:00;12.60;53.40
33943;DHT22;66763;47.856;17.462;2023-01-13T06:24:27;12.50;53.30
33943;DHT22;66763;47.856;17.462;2023-01-13T06:26:53;12.60;53.40
33943;DHT22;66763;47.856;17.462;2023-01-13T06:29:18;12.50;53.40
33943;DHT22;66763;47.856;17.462;2023-01-13T06:31:44;12.50;53.40
33943;DHT22;66763;47.856;17.462;2023-01-13T06:34:10;12.50;53.30
33943;DHT22;66763;47.856;17.462;2023-01-13T06:36:38;12.50;53.30
33943;DHT22;66763;47.856;17.462;2023-01-13T06:39:05;12.50;53.40
33943;DHT22;66763;47.856;17.462;2023-01-13T06:41:31;12.50;53.40
33943;DHT22;66763;47.856;17.462;2023-01-13T06:44:16;12.50;53.40
33943;DHT22;66763;47.856;17.462;2023-01-13T06:46:42;12.50;53.40
33943;DHT22;66763;47.856;17.462;2023-01-13T06:49:07;12.50;53.40
33943;DHT22;66763;47.856;17.462;2023-01-13T06:51:33;12.50;53.30
33943;DHT22;66763;47.856;17.462;2023-01-13T06:53:58;12.50;53.40
33943;DHT22;66763;47.856;17.462;2023-01-13T06:56:24;12.50;53.30
33943;DHT22;66763;47.856;17.462;2023-01-13T06:58:49;12.50;53.30
33943;DHT22;66763;47.856;17.462;2023-01-13T07:01:15;12.50;53.40
33943;DHT22;66763;47.856;17.462;2023-01-13T07:03:40;12.50;53.40
33943;DHT22;66763;47.856;17.462;2023-01-13T07:06:06;12.50;53.30
33943;DHT22;66763;47.856;17.462;2023-01-13T07:08:31;12.50;53.40
33943;DHT22;66763;47.856;17.462;2023-01-13T07:10:57;12.50;53.30
33943;DHT22;66763;47.856;17.462;2023-01-13T07:13:23;12.50;53.40
33943;DHT22;66763;47.856;17.462;2023-01-13T07:16:08;12.50;53.30
33943;DHT22;66763;47.856;17.462;2023-01-13T07:18:34;12.50;53.40
33943;DHT22;66763;47.856;17.462;2023-01-13T07:21:03;12.50;53.40
33943;DHT22;66763;47.856;17.462;2023-01-13T07:23:30;12.50;53.30
33943;DHT22;66763;47.856;17.462;2023-01-13T07:25:57;12.50;53.40
33943;DHT22;66763;47.856;17.462;2023-01-13T07:28:23;12.50;53.40
33943;DHT22;66763;47.856;17.462;2023-01-13T07:30:49;12.50;53.30
33943;DHT22;66763;47.856;17.462;2023-01-13T07:33:14;12.50;53.30
33943;DHT22;66763;47.856;17.462;2023-01-13T07:35:40;12.50;53.30
33943;DHT22;66763;47.856;17.462;2023-01-13T07:38:05;12.50;53.30
33943;DHT22;66763;47.856;17.462;2023-01-13T07:40:32;12.50;53.30
33943;DHT22;66763;47.856;17.462;2023-01-13T07:42:58;12.40;53.30
33943;DHT22;66763;47.856;17.462;2023-01-13T07:45:42;12.50;53.30
33943;DHT22;66763;47.856;17.462;2023-01-13T07:48:07;12.50;53.40
33943;DHT22;66763;47.856;17.462;2023-01-13T07:50:33;12.50;53.40
33943;DHT22;66763;47.856;17.462;2023-01-13T07:52:58;12.50;53.30
33943;DHT22;66763;47.856;17.462;2023-01-13T07:55:24;12.40;53.30
33943;DHT22;66763;47.856;17.462;2023-01-13T07:57:49;12.50;53.90
33943;DHT22;66763;47.856;17.462;2023-01-13T08:00:15;12.50;53.30
33943;DHT22;66763;47.856;17.462;2023-01-13T08:02:41;12.50;53.20
33943;DHT22;66763;47.856;17.462;2023-01-13T08:05:06;12.50;53.30
33943;DHT22;66763;47.856;17.462;2023-01-13T08:07:32;12.50;53.20
33943;DHT22;66763;47.856;17.462;2023-01-13T08:09:58;12.50;53.30
33943;DHT22;66763;47.856;17.462;2023-01-13T08:12:23;12.50;53.30
33943;DHT22;66763;47.856;17.462;2023-01-13T08:15:07;12.40;53.20
33943;DHT22;66763;47.856;17.462;2023-01-13T08:17:34;12.50;53.30
33943;DHT22;66763;47.856;17.462;2023-01-13T08:20:00;12.50;53.20
33943;DHT22;66763;47.856;17.462;2023-01-13T08:22:25;12.50;53.20
33943;DHT22;66763;47.856;17.462;2023-01-13T08:24:51;12.50;53.20
33943;DHT22;66763;47.856;17.462;2023-01-13T08:27:16;12.50;53.20
33943;DHT22;66763;47.856;17.462;2023-01-13T08:29:44;12.50;53.30
33943;DHT22;66763;47.856;17.462;2023-01-13T08:32:09;12.50;53.20
33943;DHT22;66763;47.856;17.462;2023-01-13T08:34:35;12.50;53.20
33943;DHT22;66763;47.856;17.462;2023-01-13T08:37:01;12.50;53.20
33943;DHT22;66763;47.856;17.462;2023-01-13T08:39:26;12.50;53.20
33943;DHT22;66763;47.856;17.462;2023-01-13T08:41:52;12.40;53.20
33943;DHT22;66763;47.856;17.462;2023-01-13T08:44:24;12.40;53.20
33943;DHT22;66763;47.856;17.462;2023-01-13T08:46:50;12.50;53.30
33943;DHT22;66763;47.856;17.462;2023-01-13T08:49:16;12.40;53.20
33943;DHT22;66763;47.856;17.462;2023-01-13T08:51:42;12.50;53.30
33943;DHT22;66763;47.856;17.462;2023-01-13T08:54:07;12.40;53.30
33943;DHT22;66763;47.856;17.462;2023-01-13T08:56:33;12.40;53.30
33943;DHT22;66763;47.856;17.462;2023-01-13T08:58:59;12.40;53.30
33943;DHT22;66763;47.856;17.462;2023-01-13T09:01:25;12.40;53.30
33943;DHT22;66763;47.856;17.462;2023-01-13T09:03:51;12.50;53.30
33943;DHT22;66763;47.856;17.462;2023-01-13T09:06:16;12.50;53.40
33943;DHT22;66763;47.856;17.462;2023-01-13T09:08:42;12.50;53.30
33943;DHT22;66763;47.856;17.462;2023-01-13T09:11:09;12.40;53.30
33943;DHT22;66763;47.856;17.462;2023-01-13T09:13:56;12.40;53.30
33943;DHT22;66763;47.856;17.462;2023-01-13T09:16:22;12.40;53.90
33943;DHT22;66763;47.856;17.462;2023-01-13T09:18:47;12.40;53.20
33943;DHT22;66763;47.856;17.462;2023-01-13T09:21:13;12.40;53.30
33943;DHT22;66763;47.856;17.462;2023-01-13T09:23:38;12.50;53.30
33943;DHT22;66763;47.856;17.462;2023-01-13T09:26:04;12.50;53.30
33943;DHT22;66763;47.856;17.462;2023-01-13T09:28:29;12.50;53.30
33943;DHT22;66763;47.856;17.462;2023-01-13T09:30:59;12.50;53.30
33943;DHT22;66763;47.856;17.462;2023-01-13T09:33:24;12.60;53.30
33943;DHT22;66763;47.856;17.462;2023-01-13T09:36:08;12.50;53.20
33943;DHT22;66763;47.856;17.462;2023-01-13T09:38:34;12.50;53.20
33943;DHT22;66763;47.856;17.462;2023-01-13T09:40:59;12.50;53.30
33943;DHT22;66763;47.856;17.462;2023-01-13T09:43:28;12.50;53.30
33943;DHT22;66763;47.856;17.462;2023-01-13T09:46:15;12.40;53.20
33943;DHT22;66763;47.856;17.462;2023-01-13T09:49:00;12.50;53.30
33943;DHT22;66763;47.856;17.462;2023-01-13T09:51:41;12.40;53.30
33943;DHT22;66763;47.856;17.462;2023-01-13T09:54:15;12.50;53.30
33943;DHT22;66763;47.856;17.462;2023-01-13T09:56:43;12.40;53.30
33943;DHT22;66763;47.856;17.462;2023-01-13T09:59:09;12.40;53.90
33943;DHT22;66763;47.856;17.462;2023-01-13T10:04:02;12.40;53.30
33943;DHT22;66763;47.856;17.462;2023-01-13T10:06:31;12.40;53.30
33943;DHT22;66763;47.856;17.462;2023-01-13T10:08:57;12.40;53.30
33943;DHT22;66763;47.856;17.462;2023-01-13T10:11:23;12.40;53.30
33943;DHT22;66763;47.856;17.462;2023-01-13T10:14:12;12.40;53.30
33943;DHT22;66763;47.856;17.462;2023-01-13T10:19:11;12.40;53.40
33943;DHT22;66763;47.856;17.462;2023-01-13T10:29:26;12.40;53.40
33943;DHT22;66763;47.856;17.462;2023-01-13T10:31:52;12.40;53.40
33943;DHT22;66763;47.856;17.462;2023-01-13T10:34:18;12.40;53.50
33943;DHT22;66763;47.856;17.462;2023-01-13T10:36:52;12.40;53.40
33943;DHT22;66763;47.856;17.462;2023-01-13T10:39:19;12.40;53.40
33943;DHT22;66763;47.856;17.462;2023-01-13T10:41:45;12.40;53.40
33943;DHT22;66763;47.856;17.462;2023-01-13T10:44:14;12.40;53.30
33943;DHT22;66763;47.856;17.462;2023-01-13T10:46:53;12.40;53.40
33943;DHT22;66763;47.856;17.462;2023-01-13T10:51:53;12.40;53.40
33943;DHT22;66763;47.856;17.462;2023-01-13T10:54:20;12.40;53.40
33943;DHT22;66763;47.856;17.462;2023-01-13T10:56:49;12.40;53.40
33943;DHT22;66763;47.856;17.462;2023-01-13T11:01:41;12.40;53.40
33943;DHT22;66763;47.856;17.462;2023-01-13T11:06:51;12.30;53.40
33943;DHT22;66763;47.856;17.462;2023-01-13T11:09:20;12.40;53.50
33943;DHT22;66763;47.856;17.462;2023-01-13T11:11:47;12.40;53.50
33943;DHT22;66763;47.856;17.462;2023-01-13T11:14:19;12.40;53.50
33943;DHT22;66763;47.856;17.462;2023-01-13T11:17:02;12.40;53.50
33943;DHT22;66763;47.856;17.462;2023-01-13T11:19:29;12.30;53.50
33943;DHT22;66763;47.856;17.462;2023-01-13T11:22:06;12.30;53.50
33943;DHT22;66763;47.856;17.462;2023-01-13T11:25:07;12.30;53.50
33943;DHT22;66763;47.856;17.462;2023-01-13T11:32:35;12.30;53.40
33943;DHT22;66763;47.856;17.462;2023-01-13T11:35:08;12.40;53.50
33943;DHT22;66763;47.856;17.462;2023-01-13T11:37:39;12.30;53.40
33943;DHT22;66763;47.856;17.462;2023-01-13T11:40:10;12.30;53.40
33943;DHT22;66763;47.856;17.462;2023-01-13T11:45:36;12.30;53.50
33943;DHT22;66763;47.856;17.462;2023-01-13T11:48:04;12.30;53.50
33943;DHT22;66763;47.856;17.462;2023-01-13T11:53:20;12.30;53.50
33943;DHT22;66763;47.856;17.462;2023-01-13T12:06:19;12.30;53.50
33943;DHT22;66763;47.856;17.462;2023-01-13T12:13:58;12.30;53.40
33943;DHT22;66763;47.856;17.462;2023-01-13T12:16:29;12.30;53.50
33943;DHT22;66763;47.856;17.462;2023-01-13T12:24:12;12.30;53.50
33943;DHT22;66763;47.856;17.462;2023-01-13T12:26:41;12.30;53.50
33943;DHT22;66763;47.856;17.462;2023-01-13T12:29:15;12.30;53.50
33943;DHT22;66763;47.856;17.462;2023-01-13T12:31:43;12.30;53.50
33943;DHT22;66763;47.856;17.462;2023-01-13T12:36:47;12.30;53.60
33943;DHT22;66763;47.856;17.462;2023-01-13T12:47:38;12.30;53.60
33943;DHT22;66763;47.856;17.462;2023-01-13T12:52:52;12.30;53.60
33943;DHT22;66763;47.856;17.462;2023-01-13T12:55:18;12.30;53.60
33943;DHT22;66763;47.856;17.462;2023-01-13T12:57:54;12.30;53.60
33943;DHT22;66763;47.856;17.462;2023-01-13T13:00:20;12.30;53.60
33943;DHT22;66763;47.856;17.462;2023-01-13T13:05:34;12.30;53.60
33943;DHT22;66763;47.856;17.462;2023-01-13T13:13:41;12.30;53.70
33943;DHT22;66763;47.856;17.462;2023-01-13T13:18:52;12.30;53.70
33943;DHT22;66763;47.856;17.462;2023-01-13T13:21:34;12.30;53.70
33943;DHT22;66763;47.856;17.462;2023-01-13T13:24:12;12.30;54.20
33943;DHT22;66763;47.856;17.462;2023-01-13T13:26:39;12.30;53.70
33943;DHT22;66763;47.856;17.462;2023-01-13T13:39:20;12.30;53.60
33943;DHT22;66763;47.856;17.462;2023-01-13T13:42:17;12.30;53.70
33943;DHT22;66763;47.856;17.462;2023-01-13T13:45:20;12.30;53.70
33943;DHT22;66763;47.856;17.462;2023-01-13T13:48:23;12.30;53.70
33943;DHT22;66763;47.856;17.462;2023-01-13T13:50:49;12.30;53.60
33943;DHT22;66763;47.856;17.462;2023-01-13T13:53:19;12.30;53.70
33943;DHT22;66763;47.856;17.462;2023-01-13T13:55:55;12.30;53.70
33943;DHT22;66763;47.856;17.462;2023-01-13T13:58:21;12.30;53.70
33943;DHT22;66763;47.856;17.462;2023-01-13T14:00:47;12.30;53.70
33943;DHT22;66763;47.856;17.462;2023-01-13T14:03:34;12.30;53.70
33943;DHT22;66763;47.856;17.462;2023-01-13T14:05:59;12.30;53.80
33943;DHT22;66763;47.856;17.462;2023-01-13T14:08:26;12.30;53.70
33943;DHT22;66763;47.856;17.462;2023-01-13T14:10:53;12.30;53.70
33943;DHT22;66763;47.856;17.462;2023-01-13T14:13:23;12.30;53.80
33943;DHT22;66763;47.856;17.462;2023-01-13T14:15:54;12.30;53.80
33943;DHT22;66763;47.856;17.462;2023-01-13T14:18:20;12.30;53.70
33943;DHT22;66763;47.856;17.462;2023-01-13T14:20:53;12.30;53.80
33943;DHT22;66763;47.856;17.462;2023-01-13T14:23:20;12.30;53.80
33943;DHT22;66763;47.856;17.462;2023-01-13T14:25:47;12.30;53.80
33943;DHT22;66763;47.856;17.462;2023-01-13T14:28:21;12.30;53.80
33943;DHT22;66763;47.856;17.462;2023-01-13T14:30:47;12.30;53.80
33943;DHT22;66763;47.856;17.462;2023-01-13T14:33:15;12.30;53.80
33943;DHT22;66763;47.856;17.462;2023-01-13T14:38:25;12.30;53.80
33943;DHT22;66763;47.856;17.462;2023-01-13T14:40:51;12.30;53.70
33943;DHT22;66763;47.856;17.462;2023-01-13T14:43:17;12.30;53.60
33943;DHT22;66763;47.856;17.462;2023-01-13T14:45:53;12.30;53.70
33943;DHT22;66763;47.856;17.462;2023-01-13T14:48:19;12.30;53.60
33943;DHT22;66763;47.856;17.462;2023-01-13T14:50:44;12.30;53.70
33943;DHT22;66763;47.856;17.462;2023-01-13T14:53:25;12.30;53.60
33943;DHT22;66763;47.856;17.462;2023-01-13T14:55:51;12.30;53.60
33943;DHT22;66763;47.856;17.462;2023-01-13T15:00:45;12.30;53.70
33943;DHT22;66763;47.856;17.462;2023-01-13T15:03:12;12.30;53.70
33943;DHT22;66763;47.856;17.462;2023-01-13T15:05:38;12.30;53.70
33943;DHT22;66763;47.856;17.462;2023-01-13T15:13:03;12.30;53.70
33943;DHT22;66763;47.856;17.462;2023-01-13T15:17:57;12.30;53.70
33943;DHT22;66763;47.856;17.462;2023-01-13T15:20:23;12.30;53.70
33943;DHT22;66763;47.856;17.462;2023-01-13T15:22:49;12.30;53.70
33943;DHT22;66763;47.856;17.462;2023-01-13T15:25:15;12.30;53.70
33943;DHT22;66763;47.856;17.462;2023-01-13T15:27:40;12.30;53.70
33943;DHT22;66763;47.856;17.462;2023-01-13T15:30:14;12.30;53.80
33943;DHT22;66763;47.856;17.462;2023-01-13T15:32:39;12.30;53.70
33943;DHT22;66763;47.856;17.462;2023-01-13T15:35:05;12.20;53.70
33943;DHT22;66763;47.856;17.462;2023-01-13T15:37:31;12.30;53.70
33943;DHT22;66763;47.856;17.462;2023-01-13T15:39:56;12.30;53.70
33943;DHT22;66763;47.856;17.462;2023-01-13T15:42:22;12.30;53.70
33943;DHT22;66763;47.856;17.462;2023-01-13T15:45:07;12.30;53.80
33943;DHT22;66763;47.856;17.462;2023-01-13T15:47:52;12.30;53.80
33943;DHT22;66763;47.856;17.462;2023-01-13T15:50:17;12.20;53.80
33943;DHT22;66763;47.856;17.462;2023-01-13T15:52:43;12.20;53.90
33943;DHT22;66763;47.856;17.462;2023-01-13T15:55:09;12.30;53.90
33943;DHT22;66763;47.856;17.462;2023-01-13T15:57:35;12.20;53.80
33943;DHT22;66763;47.856;17.462;2023-01-13T16:00:07;12.30;53.90
33943;DHT22;66763;47.856;17.462;2023-01-13T16:02:36;12.30;53.80
33943;DHT22;66763;47.856;17.462;2023-01-13T16:05:01;12.30;54.40
33943;DHT22;66763;47.856;17.462;2023-01-13T16:07:27;12.20;53.90
33943;DHT22;66763;47.856;17.462;2023-01-13T16:09:52;12.20;53.90
33943;DHT22;66763;47.856;17.462;2023-01-13T16:12:18;12.20;53.90
33943;DHT22;66763;47.856;17.462;2023-01-13T16:14:43;12.20;53.80
33943;DHT22;66763;47.856;17.462;2023-01-13T16:17:17;12.20;53.90
33943;DHT22;66763;47.856;17.462;2023-01-13T16:19:43;12.20;53.90
33943;DHT22;66763;47.856;17.462;2023-01-13T16:22:09;12.20;53.80
33943;DHT22;66763;47.856;17.462;2023-01-13T16:24:35;12.20;53.80
33943;DHT22;66763;47.856;17.462;2023-01-13T16:27:01;12.30;53.80
33943;DHT22;66763;47.856;17.462;2023-01-13T16:29:26;12.20;53.80
33943;DHT22;66763;47.856;17.462;2023-01-13T16:31:52;12.20;53.80
33943;DHT22;66763;47.856;17.462;2023-01-13T16:34:17;12.20;53.90
33943;DHT22;66763;47.856;17.462;2023-01-13T16:36:43;12.20;53.80
33943;DHT22;66763;47.856;17.462;2023-01-13T16:39:20;12.20;53.80
33943;DHT22;66763;47.856;17.462;2023-01-13T16:41:46;12.20;53.90
33943;DHT22;66763;47.856;17.462;2023-01-13T16:44:11;12.20;53.90
33943;DHT22;66763;47.856;17.462;2023-01-13T16:46:37;12.20;53.90
33943;DHT22;66763;47.856;17.462;2023-01-13T16:49:03;12.20;53.90
33943;DHT22;66763;47.856;17.462;2023-01-13T16:51:29;12.20;53.90
33943;DHT22;66763;47.856;17.462;2023-01-13T16:53:55;12.20;53.90
33943;DHT22;66763;47.856;17.462;2023-01-13T16:56:24;12.20;53.90
33943;DHT22;66763;47.856;17.462;2023-01-13T16:58:51;12.20;53.80
33943;DHT22;66763;47.856;17.462;2023-01-13T17:01:21;12.20;53.80
33943;DHT22;66763;47.856;17.462;2023-01-13T17:03:47;12.20;53.80
33943;DHT22;66763;47.856;17.462;2023-01-13T17:06:16;12.20;53.80
33943;DHT22;66763;47.856;17.462;2023-01-13T17:08:43;12.20;53.80
33943;DHT22;66763;47.856;17.462;2023-01-13T17:11:08;12.20;53.80
33943;DHT22;66763;47.856;17.462;2023-01-13T17:13:34;12.20;53.80
33943;DHT22;66763;47.856;17.462;2023-01-13T17:15:59;12.20;53.80
33943;DHT22;66763;47.856;17.462;2023-01-13T17:18:25;12.20;53.90
33943;DHT22;66763;47.856;17.462;2023-01-13T17:20:50;12.20;53.80
33943;DHT22;66763;47.856;17.462;2023-01-13T17:23:16;12.20;53.80
33943;DHT22;66763;47.856;17.462;2023-01-13T17:25:41;12.20;53.80
33943;DHT22;66763;47.856;17.462;2023-01-13T17:28:07;12.20;53.80
33943;DHT22;66763;47.856;17.462;2023-01-13T17:30:32;12.20;53.80
33943;DHT22;66763;47.856;17.462;2023-01-13T17:32:58;12.20;53.80
33943;DHT22;66763;47.856;17.462;2023-01-13T17:35:23;12.20;54.00
33943;DHT22;66763;47.856;17.462;2023-01-13T17:37:49;12.20;53.80
33943;DHT22;66763;47.856;17.462;2023-01-13T17:40:15;12.20;53.80